Pahoa, HI

8:21 AM HST on October 23, 2014 (GMT -1000)
Lalakea St - Hawaiian Shores | Change Station
CLOSE
Current Station
Personal Weather Station
Location: Pahoa, HI
Elevation: 272 ft
Nearby Weather Stations

Elev 272 ft 19.54 °N, 154.91 °W | Updated 7 seconds ago

Mostly Cloudy
Mostly Cloudy
73.6 °F
Feels Like 73.6 °F
N
0.0
Wind Variable Wind from SSW
Gusts 2.0 mph

Today
High -- | Low -- °F
--% Chance of Precip.
Yesterday
High -- | Low -- °F
Precip. -- in
6:16 AM 5:50 PM
Waning Crescent, 0% visible
Pressure 30.04 in
Visibility 10.0 miles
Clouds Few 2500 ft
Mostly Cloudy 4900 ft
Dew Point 74 °F
Humidity 100%
Rainfall 0.03 in
Snow Depth Not available.
UV 1 out of 12
Pollen Not available.
Air Quality Not available.
Flu Activity Sporadic
METAR PHTO 231753Z 26003KT 10SM FEW025 BKN049 24/22 A3004 RMK AO2 SLP171 60007 T02390217 10239 20222 51013

More Conditions Fewer Conditions

Pressure 30.04 in
Visibility 10.0 miles
Clouds Few 2500 ft
Mostly Cloudy 4900 ft
Dew Point 74 °F
Humidity 100%
Rainfall 0.03 in
Snow Depth Not available.
UV 1 out of 12
Pollen Not available.
Air Quality Not available.
Flu Activity Sporadic
METAR PHTO 231753Z 26003KT 10SM FEW025 BKN049 24/22 A3004 RMK AO2 SLP171 60007 T02390217 10239 20222 51013

More Conditions Fewer Conditions

10-Day Weather Forecast

Almanac

Astronomy

Oct. 23, 2014 Rise Set
Actual Time 6:16 AM HST 5:50 PM HST
Civil Twilight 5:54 AM HST 6:12 PM HST
Nautical Twilight 5:28 AM HST 6:38 PM HST
Astronomical Twilight 5:03 AM HST 7:04 PM HST
Moon 6:08 AM HST 6:00 PM HST
Length of Visible Light 12h 18m
Length of Day
11h 33m
Tomorrow will be 1m 1s shorter.
Waning Crescent, 0% of the Moon is Illuminated
Today
Waning Crescent
Oct 23
New
Oct 30
First Quarter
Nov 6
Full
Nov 14
Last Quarter

Today's Extremes

State Highs State Lows

Community

WunderPhotos

Upload Photos

1,764,334 photos uploaded!

WunderBlogs® & News

Nearby

Snow Depth

Station Depth Elevation
No new snow has been reported.

Earthquake Activity

City Distance Mag. Time & Date
No recent earthquake activity has been reported nearby.
Minimum magnitude displayed is 2.5.

Coastal Water Temperatures

Place Temperature
No Stations Reporting

Nearby Weather Stations